createdAt,value
2018-07-01T00:01:50.090Z,26.10
2018-07-01T00:04:23.271Z,26.30
2018-07-01T00:06:55.220Z,26.50
2018-07-01T00:09:27.994Z,26.10
2018-07-01T00:12:00.653Z,25.80
2018-07-01T00:14:33.152Z,25.90
2018-07-01T00:17:05.942Z,25.90
2018-07-01T00:19:38.513Z,25.90
2018-07-01T00:22:11.196Z,26.00
2018-07-01T00:24:43.552Z,26.00
2018-07-01T00:27:16.131Z,26.00
2018-07-01T00:29:48.000Z,25.60
2018-07-01T00:32:19.955Z,25.70
2018-07-01T00:34:52.636Z,25.80
2018-07-01T00:37:25.041Z,25.70
2018-07-01T00:39:57.672Z,25.70
2018-07-01T00:42:31.176Z,25.80
2018-07-01T00:45:03.614Z,25.70
2018-07-01T00:47:36.046Z,25.60
2018-07-01T00:50:08.996Z,25.20
2018-07-01T00:52:41.105Z,25.30
2018-07-01T00:55:13.848Z,25.10
2018-07-01T00:57:46.070Z,25.10
2018-07-01T01:00:23.021Z,25.10
2018-07-01T01:02:55.392Z,25.00
2018-07-01T01:05:27.915Z,24.90
2018-07-01T01:08:03.537Z,24.80
2018-07-01T01:10:35.996Z,24.80
2018-07-01T01:13:08.740Z,24.80
2018-07-01T01:15:41.070Z,24.90
2018-07-01T01:18:13.336Z,24.80
2018-07-01T01:20:45.856Z,24.80
2018-07-01T01:23:18.622Z,24.90
2018-07-01T01:25:50.985Z,24.80
2018-07-01T01:28:25.024Z,24.80
2018-07-01T01:30:57.310Z,24.90
2018-07-01T01:33:30.053Z,24.80
2018-07-01T01:36:02.909Z,24.70
2018-07-01T01:38:37.889Z,24.50
2018-07-01T01:41:47.260Z,24.40
2018-07-01T01:46:28.752Z,24.30
2018-07-01T01:49:06.682Z,24.30
2018-07-01T01:51:47.295Z,24.20
2018-07-01T01:54:24.116Z,24.10
2018-07-01T01:57:01.839Z,24.10
2018-07-01T01:59:53.696Z,23.90
2018-07-01T02:02:32.376Z,23.90
2018-07-01T02:05:10.725Z,23.80
2018-07-01T02:07:55.612Z,23.70
2018-07-01T02:10:28.167Z,23.70
2018-07-01T02:13:00.730Z,23.60
2018-07-01T02:15:37.254Z,23.60
2018-07-01T02:18:10.279Z,23.50
2018-07-01T02:20:43.624Z,23.40
2018-07-01T02:23:26.116Z,23.30
2018-07-01T02:25:58.653Z,23.00
2018-07-01T02:28:31.525Z,23.00
2018-07-01T02:31:03.889Z,22.90
2018-07-01T02:33:36.845Z,22.70
2018-07-01T02:36:09.152Z,22.70
2018-07-01T02:38:41.361Z,22.50
2018-07-01T02:41:14.120Z,22.40
2018-07-01T02:43:46.384Z,22.30
2018-07-01T02:46:18.497Z,22.20
2018-07-01T02:48:51.070Z,22.10
2018-07-01T02:51:23.590Z,21.90
2018-07-01T02:53:56.236Z,21.70
2018-07-01T02:56:28.569Z,21.60
2018-07-01T02:59:01.148Z,21.60
2018-07-01T03:01:33.787Z,21.60
2018-07-01T03:04:06.395Z,21.50
2018-07-01T03:06:38.870Z,21.30
2018-07-01T03:09:14.090Z,21.10
2018-07-01T03:11:46.458Z,20.90
2018-07-01T03:14:19.666Z,21.00
2018-07-01T03:16:52.295Z,21.10
2018-07-01T03:19:24.571Z,21.00
2018-07-01T03:21:56.926Z,20.90
2018-07-01T03:24:29.244Z,20.70
2018-07-01T03:27:01.657Z,20.50
2018-07-01T03:29:34.140Z,20.40
2018-07-01T03:32:06.689Z,20.30
2018-07-01T03:34:39.190Z,20.30
2018-07-01T03:37:11.334Z,20.20
2018-07-01T03:39:43.916Z,20.20
2018-07-01T03:42:16.443Z,19.90
2018-07-01T03:44:49.042Z,19.90
2018-07-01T03:47:21.266Z,19.80
2018-07-01T03:49:53.419Z,19.70
2018-07-01T03:52:25.775Z,19.80
2018-07-01T03:54:58.365Z,19.70
2018-07-01T03:57:30.731Z,19.70
2018-07-01T04:00:03.510Z,19.60
2018-07-01T04:02:36.056Z,19.60
2018-07-01T04:05:08.484Z,19.60
2018-07-01T04:07:41.029Z,19.40
2018-07-01T04:10:13.509Z,19.30
2018-07-01T04:12:45.785Z,19.30
2018-07-01T04:15:18.493Z,19.30
2018-07-01T04:17:50.848Z,19.30
2018-07-01T04:20:23.463Z,19.10
2018-07-01T04:22:55.739Z,19.10
2018-07-01T04:25:27.927Z,19.10
2018-07-01T04:28:00.506Z,19.00
2018-07-01T04:30:32.755Z,19.00
2018-07-01T04:33:05.376Z,18.90
2018-07-01T04:35:37.879Z,18.80
2018-07-01T04:38:10.195Z,18.80
2018-07-01T04:40:42.415Z,18.80
2018-07-01T04:43:14.977Z,18.70
2018-07-01T04:45:47.453Z,18.70
2018-07-01T04:48:19.588Z,18.70
2018-07-01T04:50:52.176Z,18.70
2018-07-01T04:53:24.526Z,18.70
2018-07-01T04:55:56.736Z,18.70
2018-07-01T04:58:29.569Z,18.50
2018-07-01T05:03:33.697Z,18.50
2018-07-01T05:06:06.879Z,18.50
2018-07-01T05:08:39.351Z,18.60
2018-07-01T05:11:12.369Z,18.60
2018-07-01T05:13:44.535Z,18.50
2018-07-01T05:16:17.235Z,18.50
2018-07-01T05:18:49.217Z,18.50
2018-07-01T05:21:21.695Z,18.40
2018-07-01T05:23:54.258Z,18.40
2018-07-01T05:26:26.681Z,18.40
2018-07-01T05:31:30.616Z,18.30
2018-07-01T05:34:03.649Z,18.30
2018-07-01T05:36:35.771Z,18.10
2018-07-01T05:39:11.385Z,18.20
2018-07-01T05:41:43.744Z,18.00
2018-07-01T05:44:16.436Z,18.10
2018-07-01T05:46:48.986Z,18.10
2018-07-01T05:49:21.197Z,18.00
2018-07-01T05:54:24.827Z,18.00
2018-07-01T05:56:57.299Z,18.00
2018-07-01T05:59:29.941Z,17.90
2018-07-01T06:02:02.323Z,17.80
2018-07-01T06:04:34.629Z,17.80
2018-07-01T06:07:07.122Z,17.70
2018-07-01T06:09:39.531Z,17.80
2018-07-01T06:12:11.764Z,17.70
2018-07-01T06:14:44.480Z,17.70
2018-07-01T06:17:17.188Z,17.60
2018-07-01T06:19:49.914Z,17.60
2018-07-01T06:22:23.295Z,17.60
2018-07-01T06:24:55.651Z,17.60
2018-07-01T06:27:28.254Z,17.60
2018-07-01T06:30:00.468Z,17.60
2018-07-01T06:32:32.871Z,17.60
2018-07-01T06:35:05.243Z,17.60
2018-07-01T06:37:37.631Z,17.50
2018-07-01T06:40:09.843Z,17.50
2018-07-01T06:42:42.553Z,17.60
2018-07-01T06:45:15.190Z,17.60
2018-07-01T06:47:47.831Z,17.50
2018-07-01T06:50:20.185Z,17.50
2018-07-01T06:52:54.096Z,17.50
2018-07-01T06:55:26.516Z,17.50
2018-07-01T06:57:58.292Z,17.50
2018-07-01T07:00:30.679Z,17.40
2018-07-01T07:03:03.052Z,17.40
2018-07-01T07:05:35.374Z,17.40
2018-07-01T07:08:07.758Z,17.40
2018-07-01T07:10:40.355Z,17.40
2018-07-01T07:13:12.755Z,17.40
2018-07-01T07:15:45.097Z,17.40
2018-07-01T07:18:17.546Z,17.40
2018-07-01T07:20:49.873Z,17.40
2018-07-01T07:23:22.465Z,17.40
2018-07-01T07:25:54.774Z,17.40
2018-07-01T07:28:27.266Z,17.40
2018-07-01T07:30:59.643Z,17.40
2018-07-01T07:33:32.165Z,17.40
2018-07-01T07:36:04.611Z,17.40
2018-07-01T07:38:37.031Z,17.30
2018-07-01T07:41:09.194Z,17.30
2018-07-01T07:43:41.541Z,17.20
2018-07-01T07:46:14.011Z,17.30
2018-07-01T07:48:46.472Z,17.30
2018-07-01T07:51:18.566Z,17.30
2018-07-01T07:53:51.015Z,17.30
2018-07-01T07:56:23.538Z,17.30
2018-07-01T07:58:56.166Z,17.30
2018-07-01T08:01:28.696Z,17.30
2018-07-01T08:04:01.120Z,17.30
2018-07-01T08:06:33.298Z,17.20
2018-07-01T08:09:06.003Z,17.20
2018-07-01T08:11:38.638Z,17.20
2018-07-01T08:14:10.989Z,17.10
2018-07-01T08:16:43.583Z,17.10
2018-07-01T08:19:16.132Z,17.10
2018-07-01T08:21:48.660Z,17.10
2018-07-01T08:24:21.049Z,17.10
2018-07-01T08:26:53.859Z,17.10
2018-07-01T08:29:26.263Z,17.10
2018-07-01T08:31:58.581Z,17.10
2018-07-01T08:34:31.355Z,17.20
2018-07-01T08:37:03.561Z,17.20
2018-07-01T08:39:36.094Z,17.10
2018-07-01T08:42:26.582Z,17.10
2018-07-01T08:44:59.830Z,17.10
2018-07-01T08:47:33.039Z,17.10
2018-07-01T08:50:05.544Z,17.10
2018-07-01T08:52:38.117Z,17.10
2018-07-01T08:55:10.226Z,17.00
2018-07-01T08:57:42.797Z,17.00
2018-07-01T09:02:46.243Z,17.10
2018-07-01T09:05:18.777Z,17.00
2018-07-01T09:07:51.178Z,17.00
2018-07-01T09:10:23.852Z,17.00
2018-07-01T09:12:56.192Z,16.90
2018-07-01T09:15:28.774Z,16.90
2018-07-01T09:18:01.163Z,17.00
2018-07-01T09:20:33.906Z,17.00
2018-07-01T09:23:06.530Z,17.00
2018-07-01T09:25:39.294Z,16.90
2018-07-01T09:28:11.459Z,16.90
2018-07-01T09:30:43.818Z,16.90
2018-07-01T09:33:16.374Z,16.90
2018-07-01T09:35:48.770Z,17.00
2018-07-01T09:38:21.373Z,17.00
2018-07-01T09:40:53.888Z,17.00
2018-07-01T09:43:26.332Z,17.00
2018-07-01T09:45:58.991Z,16.90
2018-07-01T09:48:31.466Z,17.00
2018-07-01T09:51:04.100Z,17.00
2018-07-01T09:53:36.471Z,17.00
2018-07-01T09:56:09.043Z,16.90
2018-07-01T09:58:41.768Z,17.00
2018-07-01T10:01:14.191Z,17.00
2018-07-01T10:03:46.438Z,16.90
2018-07-01T10:06:18.746Z,17.00
2018-07-01T10:08:51.183Z,17.00
2018-07-01T10:11:23.669Z,17.00
2018-07-01T10:13:56.270Z,17.00
2018-07-01T10:16:28.458Z,16.90
2018-07-01T10:19:00.611Z,16.90
2018-07-01T10:21:33.352Z,17.00
2018-07-01T10:24:05.775Z,16.90
2018-07-01T10:26:38.165Z,16.90
2018-07-01T10:29:13.686Z,16.90
2018-07-01T10:31:46.923Z,16.90
2018-07-01T10:34:19.248Z,16.90
2018-07-01T10:36:51.656Z,16.90
2018-07-01T10:39:23.861Z,16.80
2018-07-01T10:41:56.231Z,16.90
2018-07-01T10:44:28.443Z,16.90
2018-07-01T10:49:32.753Z,16.90
2018-07-01T10:52:04.924Z,16.90
2018-07-01T10:54:37.438Z,16.90
2018-07-01T10:57:09.962Z,16.90
2018-07-01T10:59:42.526Z,16.90
2018-07-01T11:02:14.971Z,16.80
2018-07-01T11:04:47.601Z,16.80
2018-07-01T11:07:20.163Z,16.90
2018-07-01T11:09:52.546Z,16.90
2018-07-01T11:12:24.897Z,16.80
2018-07-01T11:14:57.536Z,16.70
2018-07-01T11:17:29.837Z,16.70
2018-07-01T11:20:02.042Z,16.70
2018-07-01T11:22:34.447Z,16.70
2018-07-01T11:25:07.021Z,16.70
2018-07-01T11:27:39.498Z,16.70
2018-07-01T11:30:11.770Z,16.70
2018-07-01T11:32:44.605Z,16.70
2018-07-01T11:35:17.710Z,16.70
2018-07-01T11:37:50.060Z,16.70
2018-07-01T11:40:22.267Z,16.70
2018-07-01T11:42:54.794Z,16.70
2018-07-01T11:45:27.352Z,16.70
2018-07-01T11:47:59.726Z,16.70
2018-07-01T11:50:32.016Z,16.70
2018-07-01T11:53:04.614Z,16.70
2018-07-01T11:55:36.965Z,16.70
2018-07-01T11:58:09.163Z,16.70
2018-07-01T12:00:41.517Z,16.70
2018-07-01T12:03:14.049Z,16.70
2018-07-01T12:05:46.443Z,16.70
2018-07-01T12:08:18.812Z,16.70
2018-07-01T12:10:51.579Z,16.60
2018-07-01T12:13:24.134Z,16.60
2018-07-01T12:15:56.779Z,16.60
2018-07-01T12:18:29.291Z,16.50
2018-07-01T12:21:01.498Z,16.50
2018-07-01T12:23:34.303Z,16.50
2018-07-01T12:26:06.836Z,16.50
2018-07-01T12:28:39.190Z,16.50
2018-07-01T12:31:11.503Z,16.50
2018-07-01T12:33:43.881Z,16.40
2018-07-01T12:36:16.470Z,16.40
2018-07-01T12:38:48.819Z,16.50
2018-07-01T12:41:21.253Z,16.50
2018-07-01T12:43:53.375Z,16.50
2018-07-01T12:46:25.762Z,16.50
2018-07-01T12:48:58.105Z,16.50
2018-07-01T12:51:30.986Z,16.50
2018-07-01T12:54:03.478Z,16.50
2018-07-01T12:56:35.705Z,16.50
2018-07-01T12:59:08.235Z,16.50
2018-07-01T13:01:40.629Z,16.60
2018-07-01T13:04:12.807Z,16.60
2018-07-01T13:06:45.295Z,16.60
2018-07-01T13:09:17.715Z,16.70
2018-07-01T13:11:49.843Z,16.70
2018-07-01T13:14:22.252Z,16.60
2018-07-01T13:16:54.534Z,16.70
2018-07-01T13:19:26.866Z,16.70
2018-07-01T13:21:59.342Z,16.80
2018-07-01T13:24:32.127Z,16.70
2018-07-01T13:27:04.486Z,16.70
2018-07-01T13:29:36.848Z,16.80
2018-07-01T13:32:09.297Z,16.90
2018-07-01T13:34:42.002Z,16.90
2018-07-01T13:37:14.454Z,16.90
2018-07-01T13:39:46.856Z,17.00
2018-07-01T13:42:19.468Z,17.00
2018-07-01T13:44:51.842Z,17.00
2018-07-01T13:47:24.425Z,17.00
2018-07-01T13:49:57.117Z,17.00
2018-07-01T13:52:29.419Z,17.10
2018-07-01T13:55:01.874Z,17.20
2018-07-01T13:57:34.148Z,17.20
2018-07-01T14:00:07.540Z,17.20
2018-07-01T14:02:40.099Z,17.30
2018-07-01T14:05:12.604Z,17.40
2018-07-01T14:07:44.872Z,17.50
2018-07-01T14:10:17.110Z,17.60
2018-07-01T14:12:49.408Z,17.70
2018-07-01T14:15:21.547Z,17.70
2018-07-01T14:17:54.084Z,17.70
2018-07-01T14:20:26.451Z,17.60
2018-07-01T14:22:58.848Z,17.70
2018-07-01T14:25:31.234Z,17.70
2018-07-01T14:28:03.773Z,17.80
2018-07-01T14:30:36.147Z,17.80
2018-07-01T14:33:09.090Z,18.00
2018-07-01T14:35:42.139Z,18.10
2018-07-01T14:38:14.676Z,18.20
2018-07-01T14:40:46.989Z,18.30
2018-07-01T14:43:19.435Z,18.30
2018-07-01T14:45:51.644Z,18.40
2018-07-01T14:48:23.785Z,18.70
2018-07-01T14:53:27.795Z,18.80
2018-07-01T14:56:00.194Z,19.00
2018-07-01T14:58:32.806Z,19.00
2018-07-01T15:01:05.222Z,19.30
2018-07-01T15:03:38.053Z,19.80
2018-07-01T15:06:11.368Z,20.20
2018-07-01T15:08:43.657Z,20.60
2018-07-01T15:11:16.238Z,21.30
2018-07-01T15:13:49.195Z,22.10
2018-07-01T15:16:21.832Z,22.70
2018-07-01T15:18:54.398Z,23.40
2018-07-01T15:21:26.637Z,23.80
2018-07-01T15:23:58.898Z,24.30
2018-07-01T15:26:31.710Z,24.80
2018-07-01T15:29:04.040Z,24.80
2018-07-01T15:31:36.271Z,24.60
2018-07-01T15:34:08.590Z,25.20
2018-07-01T15:36:41.055Z,25.60
2018-07-01T15:39:14.083Z,25.70
2018-07-01T15:41:46.467Z,24.60
2018-07-01T15:44:18.589Z,25.20
2018-07-01T15:46:50.808Z,25.90
2018-07-01T15:49:22.986Z,26.90
2018-07-01T15:51:55.354Z,27.50
2018-07-01T15:54:27.493Z,27.80
2018-07-01T15:57:00.072Z,28.10
2018-07-01T15:59:32.501Z,28.60
2018-07-01T16:02:04.723Z,29.60
2018-07-01T16:04:37.079Z,29.50
2018-07-01T16:07:09.512Z,29.70
2018-07-01T16:09:41.969Z,29.70
2018-07-01T16:12:15.515Z,29.00
2018-07-01T16:17:19.150Z,30.90
2018-07-01T16:19:51.472Z,30.90
2018-07-01T16:22:23.908Z,30.90
2018-07-01T16:25:01.037Z,31.20
2018-07-01T16:27:36.673Z,30.50
2018-07-01T16:30:09.472Z,30.70
2018-07-01T16:32:42.096Z,30.90
2018-07-01T16:35:14.532Z,31.70
2018-07-01T16:37:47.150Z,32.50
2018-07-01T16:40:19.710Z,32.50
2018-07-01T16:42:52.078Z,32.40
2018-07-01T16:45:24.450Z,32.50
2018-07-01T16:47:56.658Z,31.60
2018-07-01T16:50:28.977Z,31.10
2018-07-01T16:53:01.367Z,30.60
2018-07-01T16:55:33.737Z,30.60
2018-07-01T16:58:05.915Z,29.40
2018-07-01T17:00:38.361Z,30.00
2018-07-01T17:03:10.702Z,30.00
2018-07-01T17:05:43.093Z,29.10
2018-07-01T17:08:15.277Z,28.70
2018-07-01T17:10:47.746Z,28.40
2018-07-01T17:13:20.205Z,27.60
2018-07-01T17:15:52.993Z,26.80
2018-07-01T17:18:25.725Z,26.90
2018-07-01T17:20:58.044Z,26.80
2018-07-01T17:23:30.468Z,26.20
2018-07-01T17:26:02.745Z,25.80
2018-07-01T17:28:35.179Z,25.50
2018-07-01T17:31:12.122Z,25.50
2018-07-01T17:33:44.606Z,25.70
2018-07-01T17:36:17.699Z,26.10
2018-07-01T17:38:50.312Z,26.20
2018-07-01T17:41:22.656Z,25.80
2018-07-01T17:43:54.842Z,25.70
2018-07-01T17:46:27.015Z,25.50
2018-07-01T17:48:59.057Z,25.60
2018-07-01T17:54:02.957Z,26.80
2018-07-01T17:56:35.506Z,27.00
2018-07-01T17:59:07.861Z,27.60
2018-07-01T18:01:40.282Z,27.70
2018-07-01T18:04:14.072Z,28.20
2018-07-01T18:06:46.467Z,28.40
2018-07-01T18:09:19.151Z,27.50
2018-07-01T18:11:51.816Z,27.40
2018-07-01T18:14:24.171Z,27.30
2018-07-01T18:16:56.357Z,27.10
2018-07-01T18:19:28.904Z,26.80
2018-07-01T18:22:12.588Z,26.90
2018-07-01T18:24:53.943Z,26.60
2018-07-01T18:27:07.004Z,26.40
2018-07-01T18:29:39.835Z,26.50
2018-07-01T18:32:12.429Z,26.20
2018-07-01T18:34:45.113Z,26.20
2018-07-01T18:37:17.499Z,26.10
2018-07-01T18:39:50.028Z,25.60
2018-07-01T18:42:22.593Z,25.90
2018-07-01T18:44:54.987Z,26.20
2018-07-01T18:47:27.376Z,26.70
2018-07-01T18:50:00.011Z,26.40
2018-07-01T18:52:35.094Z,26.50
2018-07-01T18:55:08.099Z,25.80
2018-07-01T18:57:40.548Z,25.50
2018-07-01T19:00:13.369Z,25.50
2018-07-01T19:02:46.666Z,25.70
2018-07-01T19:05:19.427Z,26.30
2018-07-01T19:07:51.594Z,26.90
2018-07-01T19:10:23.954Z,27.20
2018-07-01T19:12:56.114Z,27.60
2018-07-01T19:17:59.918Z,28.70
2018-07-01T19:20:32.536Z,28.40
2018-07-01T19:23:05.273Z,28.70
2018-07-01T19:25:37.673Z,28.30
2018-07-01T19:28:10.167Z,28.20
2018-07-01T19:30:42.918Z,27.90
2018-07-01T19:33:15.065Z,27.50
2018-07-01T19:35:47.455Z,27.00
2018-07-01T19:38:19.792Z,26.50
2018-07-01T19:40:52.984Z,26.40
2018-07-01T19:43:25.672Z,25.90
2018-07-01T19:45:57.980Z,26.10
2018-07-01T19:48:30.581Z,26.30
2018-07-01T19:51:02.934Z,26.40
2018-07-01T19:53:35.155Z,26.30
2018-07-01T19:56:08.065Z,26.70
2018-07-01T19:58:40.672Z,27.10
2018-07-01T20:01:13.205Z,27.10
2018-07-01T20:03:45.774Z,27.00
2018-07-01T20:06:18.129Z,26.90
2018-07-01T20:08:52.051Z,26.30
2018-07-01T20:11:24.492Z,26.20
2018-07-01T20:13:57.087Z,25.70
2018-07-01T20:16:29.615Z,25.60
2018-07-01T20:19:02.915Z,25.10
2018-07-01T20:21:35.924Z,25.20
2018-07-01T20:24:08.621Z,24.90
2018-07-01T20:26:40.917Z,24.90
2018-07-01T20:29:13.586Z,25.00
2018-07-01T20:31:45.898Z,24.90
2018-07-01T20:34:18.060Z,24.90
2018-07-01T20:36:51.382Z,24.80
2018-07-01T20:39:23.788Z,24.10
2018-07-01T20:41:56.359Z,24.30
2018-07-01T20:44:28.760Z,24.50
2018-07-01T20:47:01.537Z,24.30
2018-07-01T20:49:33.999Z,24.40
2018-07-01T20:52:06.606Z,24.30
2018-07-01T20:54:39.128Z,24.20
2018-07-01T20:57:12.021Z,24.30
2018-07-01T20:59:44.290Z,24.50
2018-07-01T21:02:16.898Z,24.60
2018-07-01T21:04:49.665Z,24.40
2018-07-01T21:07:22.085Z,24.40
2018-07-01T21:09:54.552Z,24.50
2018-07-01T21:12:27.146Z,24.50
2018-07-01T21:14:59.815Z,24.50
2018-07-01T21:17:32.175Z,24.30
2018-07-01T21:20:04.694Z,23.90
2018-07-01T21:22:37.113Z,23.70
2018-07-01T21:25:09.712Z,23.70
2018-07-01T21:27:42.392Z,23.80
2018-07-01T21:30:15.015Z,23.70
2018-07-01T21:32:47.754Z,23.90
2018-07-01T21:35:20.198Z,23.80
2018-07-01T21:37:52.785Z,23.70
2018-07-01T21:40:25.528Z,23.70
2018-07-01T21:42:58.095Z,23.70
2018-07-01T21:45:30.677Z,23.60
2018-07-01T21:48:03.277Z,23.70
2018-07-01T21:50:36.040Z,23.70
2018-07-01T21:53:08.740Z,23.60
2018-07-01T21:55:41.423Z,23.60
2018-07-01T21:58:14.173Z,23.60
2018-07-01T22:00:46.742Z,23.60
2018-07-01T22:03:18.970Z,23.60
2018-07-01T22:05:51.241Z,23.70
2018-07-01T22:08:23.721Z,23.70
2018-07-01T22:11:05.820Z,23.70
2018-07-01T22:14:44.561Z,23.80
2018-07-01T22:17:17.084Z,23.90
2018-07-01T22:19:49.531Z,24.00
2018-07-01T22:22:21.937Z,24.10
2018-07-01T22:24:54.725Z,24.10
2018-07-01T22:27:27.247Z,24.10
2018-07-01T22:29:59.848Z,24.10
2018-07-01T22:32:32.196Z,24.10
2018-07-01T22:35:04.600Z,24.20
2018-07-01T22:37:36.962Z,23.90
2018-07-01T22:40:09.523Z,23.80
2018-07-01T22:42:42.121Z,23.80
2018-07-01T22:45:14.671Z,23.80
2018-07-01T22:47:47.035Z,23.90
2018-07-01T22:50:19.445Z,23.80
2018-07-01T22:52:51.933Z,23.40
2018-07-01T22:55:24.336Z,23.50
2018-07-01T22:57:56.696Z,23.40
2018-07-01T23:00:28.941Z,23.40
2018-07-01T23:03:12.079Z,23.50
2018-07-01T23:05:44.781Z,23.60
2018-07-01T23:08:17.091Z,23.60
2018-07-01T23:10:49.658Z,23.40
2018-07-01T23:13:21.800Z,23.40
2018-07-01T23:15:55.006Z,23.50
2018-07-01T23:18:27.583Z,23.50
2018-07-01T23:21:00.037Z,23.50
2018-07-01T23:26:04.454Z,23.50
2018-07-01T23:28:36.907Z,23.10
2018-07-01T23:31:09.496Z,23.00
2018-07-01T23:33:41.598Z,23.00
2018-07-01T23:36:15.221Z,22.90
2018-07-01T23:38:48.549Z,22.80
2018-07-01T23:41:21.484Z,22.80
2018-07-01T23:43:54.187Z,22.70
2018-07-01T23:46:27.534Z,22.60
2018-07-01T23:48:59.807Z,22.40
2018-07-01T23:51:32.297Z,22.40
2018-07-01T23:54:04.942Z,22.30
2018-07-01T23:56:37.473Z,22.20
2018-07-01T23:59:10.844Z,22.30
